sensor_id;sensor_type;location;lat;lon;timestamp;pressure;altitude;pressure_sealevel;temperature;humidity
54459;BME280;40368;49.350;8.152;2022-07-03T00:00:21;1002.8;;;25.39;38.77
54459;BME280;40368;49.350;8.152;2022-07-03T00:01:21;1002.8;;;25.41;38.67
54459;BME280;40368;49.350;8.152;2022-07-03T00:02:21;1002.8;;;25.36;38.66
54459;BME280;40368;49.350;8.152;2022-07-03T00:03:21;1002.8;;;25.37;38.6
54459;BME280;40368;49.350;8.152;2022-07-03T00:04:21;1002.8;;;25.41;38.77
54459;BME280;40368;49.350;8.152;2022-07-03T00:05:22;1002.8;;;25.43;38.6
54459;BME280;40368;49.350;8.152;2022-07-03T00:06:21;1002.8;;;25.39;38.57
54459;BME280;40368;49.350;8.152;2022-07-03T00:07:21;1002.8;;;25.4;38.46
54459;BME280;40368;49.350;8.152;2022-07-03T00:08:21;1002.8;;;25.39;38.68
54459;BME280;40368;49.350;8.152;2022-07-03T00:09:21;1002.8;;;25.38;38.52
54459;BME280;40368;49.350;8.152;2022-07-03T00:10:21;1002.8;;;25.34;38.6
54459;BME280;40368;49.350;8.152;2022-07-03T00:11:21;1002.8;;;25.33;38.69
54459;BME280;40368;49.350;8.152;2022-07-03T00:12:21;1002.8;;;25.29;38.83
54459;BME280;40368;49.350;8.152;2022-07-03T00:13:21;1002.8;;;25.22;38.99
54459;BME280;40368;49.350;8.152;2022-07-03T00:14:21;1002.8;;;25.21;39.01
54459;BME280;40368;49.350;8.152;2022-07-03T00:15:21;1002.8;;;25.15;39.18
54459;BME280;40368;49.350;8.152;2022-07-03T00:16:21;1002.7;;;25.13;39.12
54459;BME280;40368;49.350;8.152;2022-07-03T00:17:21;1002.7;;;25.08;39.15
54459;BME280;40368;49.350;8.152;2022-07-03T00:18:21;1002.8;;;25.08;39.07
54459;BME280;40368;49.350;8.152;2022-07-03T00:19:21;1002.8;;;25.12;39.02
54459;BME280;40368;49.350;8.152;2022-07-03T00:20:21;1002.7;;;25.06;39.2
54459;BME280;40368;49.350;8.152;2022-07-03T00:21:24;1002.8;;;25.06;39.1
54459;BME280;40368;49.350;8.152;2022-07-03T00:22:21;1002.8;;;25.03;39.18
54459;BME280;40368;49.350;8.152;2022-07-03T00:23:21;1002.7;;;25;39.35
54459;BME280;40368;49.350;8.152;2022-07-03T00:24:22;1002.7;;;24.97;39.23
54459;BME280;40368;49.350;8.152;2022-07-03T00:25:21;1002.7;;;24.98;39.46
54459;BME280;40368;49.350;8.152;2022-07-03T00:26:21;1002.7;;;25.02;39.16
54459;BME280;40368;49.350;8.152;2022-07-03T00:27:21;1002.7;;;25.04;39.2
54459;BME280;40368;49.350;8.152;2022-07-03T00:28:21;1002.7;;;25.05;39.51
54459;BME280;40368;49.350;8.152;2022-07-03T00:29:22;1002.7;;;25.04;39.29
54459;BME280;40368;49.350;8.152;2022-07-03T00:30:21;1002.7;;;25.04;39.41
54459;BME280;40368;49.350;8.152;2022-07-03T00:31:21;1002.7;;;25.04;39.2
54459;BME280;40368;49.350;8.152;2022-07-03T00:32:22;1002.7;;;25.03;39.3
54459;BME280;40368;49.350;8.152;2022-07-03T00:33:21;1002.7;;;25.03;39.3
54459;BME280;40368;49.350;8.152;2022-07-03T00:34:21;1002.7;;;25.03;39.36
54459;BME280;40368;49.350;8.152;2022-07-03T00:35:21;1002.6;;;25;39.28
54459;BME280;40368;49.350;8.152;2022-07-03T00:36:21;1002.7;;;25.03;39.32
54459;BME280;40368;49.350;8.152;2022-07-03T00:37:21;1002.6;;;25.05;39.25
54459;BME280;40368;49.350;8.152;2022-07-03T00:38:21;1002.7;;;25.04;39.14
54459;BME280;40368;49.350;8.152;2022-07-03T00:39:21;1002.6;;;24.96;39.41
54459;BME280;40368;49.350;8.152;2022-07-03T00:40:21;1002.7;;;24.93;39.4
54459;BME280;40368;49.350;8.152;2022-07-03T00:41:23;1002.7;;;24.96;39.43
54459;BME280;40368;49.350;8.152;2022-07-03T00:42:21;1002.7;;;24.87;39.89
54459;BME280;40368;49.350;8.152;2022-07-03T00:43:21;1002.7;;;24.87;39.61
54459;BME280;40368;49.350;8.152;2022-07-03T00:44:21;1002.7;;;24.81;39.7
54459;BME280;40368;49.350;8.152;2022-07-03T00:45:21;1002.7;;;24.83;39.76
54459;BME280;40368;49.350;8.152;2022-07-03T00:46:21;1002.7;;;24.89;39.32
54459;BME280;40368;49.350;8.152;2022-07-03T00:47:22;1002.7;;;24.88;39.63
54459;BME280;40368;49.350;8.152;2022-07-03T00:48:21;1002.7;;;24.82;39.68
54459;BME280;40368;49.350;8.152;2022-07-03T00:49:21;1002.7;;;24.77;39.92
54459;BME280;40368;49.350;8.152;2022-07-03T00:50:22;1002.7;;;24.75;40
54459;BME280;40368;49.350;8.152;2022-07-03T00:51:21;1002.7;;;24.71;39.84
54459;BME280;40368;49.350;8.152;2022-07-03T00:52:21;1002.7;;;24.73;39.85
54459;BME280;40368;49.350;8.152;2022-07-03T00:53:23;1002.7;;;24.7;40.08
54459;BME280;40368;49.350;8.152;2022-07-03T00:54:21;1002.7;;;24.62;40.44
54459;BME280;40368;49.350;8.152;2022-07-03T00:55:21;1002.7;;;24.59;40.23
54459;BME280;40368;49.350;8.152;2022-07-03T00:56:23;1002.7;;;24.58;40.29
54459;BME280;40368;49.350;8.152;2022-07-03T00:57:22;1002.7;;;24.57;40.28
54459;BME280;40368;49.350;8.152;2022-07-03T00:58:21;1002.7;;;24.63;40.17
54459;BME280;40368;49.350;8.152;2022-07-03T00:59:21;1002.7;;;24.64;40.1
54459;BME280;40368;49.350;8.152;2022-07-03T01:00:21;1002.7;;;24.68;40.05
54459;BME280;40368;49.350;8.152;2022-07-03T01:01:21;1002.7;;;24.67;40.04
54459;BME280;40368;49.350;8.152;2022-07-03T01:02:27;1002.7;;;24.6;40.21
54459;BME280;40368;49.350;8.152;2022-07-03T01:03:21;1002.7;;;24.55;40.27
54459;BME280;40368;49.350;8.152;2022-07-03T01:04:22;1002.7;;;24.51;40.45
54459;BME280;40368;49.350;8.152;2022-07-03T01:07:25;1002.7;;;24.42;40.65
54459;BME280;40368;49.350;8.152;2022-07-03T01:08:40;1002.7;;;24.45;40.44
54459;BME280;40368;49.350;8.152;2022-07-03T01:10:14;1002.7;;;24.46;40.31
54459;BME280;40368;49.350;8.152;2022-07-03T01:11:10;1002.7;;;24.44;40.55
54459;BME280;40368;49.350;8.152;2022-07-03T01:12:23;1002.7;;;24.43;40.42
54459;BME280;40368;49.350;8.152;2022-07-03T01:13:38;1002.7;;;24.41;40.49
54459;BME280;40368;49.350;8.152;2022-07-03T01:14:32;1002.7;;;24.36;40.49
54459;BME280;40368;49.350;8.152;2022-07-03T01:15:11;1002.7;;;24.31;40.79
54459;BME280;40368;49.350;8.152;2022-07-03T01:15:50;1002.7;;;24.31;40.54
54459;BME280;40368;49.350;8.152;2022-07-03T01:16:27;1002.7;;;24.3;40.64
54459;BME280;40368;49.350;8.152;2022-07-03T01:17:23;1002.7;;;24.35;40.47
54459;BME280;40368;49.350;8.152;2022-07-03T01:18:23;1002.7;;;24.48;40.16
54459;BME280;40368;49.350;8.152;2022-07-03T01:19:27;1002.7;;;24.54;40.15
54459;BME280;40368;49.350;8.152;2022-07-03T01:20:21;1002.7;;;24.58;39.94
54459;BME280;40368;49.350;8.152;2022-07-03T01:22:29;1002.6;;;24.67;39.71
54459;BME280;40368;49.350;8.152;2022-07-03T01:23:24;1002.6;;;24.63;39.77
54459;BME280;40368;49.350;8.152;2022-07-03T01:24:28;1002.6;;;24.59;39.9
54459;BME280;40368;49.350;8.152;2022-07-03T01:25:22;1002.6;;;24.57;39.84
54459;BME280;40368;49.350;8.152;2022-07-03T01:26:21;1002.6;;;24.57;39.85
54459;BME280;40368;49.350;8.152;2022-07-03T01:27:22;1002.6;;;24.59;39.94
54459;BME280;40368;49.350;8.152;2022-07-03T01:28:21;1002.5;;;24.57;39.75
54459;BME280;40368;49.350;8.152;2022-07-03T01:29:21;1002.5;;;24.56;39.98
54459;BME280;40368;49.350;8.152;2022-07-03T01:30:21;1002.5;;;24.53;40.11
54459;BME280;40368;49.350;8.152;2022-07-03T01:31:21;1002.5;;;24.46;40.45
54459;BME280;40368;49.350;8.152;2022-07-03T01:32:22;1002.6;;;24.45;40.28
54459;BME280;40368;49.350;8.152;2022-07-03T01:33:22;1002.6;;;24.45;40.37
54459;BME280;40368;49.350;8.152;2022-07-03T01:34:21;1002.5;;;24.43;40.25
54459;BME280;40368;49.350;8.152;2022-07-03T01:35:21;1002.5;;;24.4;40.34
54459;BME280;40368;49.350;8.152;2022-07-03T01:36:21;1002.6;;;24.37;40.51
54459;BME280;40368;49.350;8.152;2022-07-03T01:37:21;1002.5;;;24.35;40.53
54459;BME280;40368;49.350;8.152;2022-07-03T01:38:21;1002.5;;;24.32;40.56
54459;BME280;40368;49.350;8.152;2022-07-03T01:39:21;1002.5;;;24.31;40.45
54459;BME280;40368;49.350;8.152;2022-07-03T01:40:21;1002.5;;;24.32;40.24
54459;BME280;40368;49.350;8.152;2022-07-03T01:41:21;1002.5;;;24.37;40.47
54459;BME280;40368;49.350;8.152;2022-07-03T01:42:21;1002.5;;;24.38;40.54
54459;BME280;40368;49.350;8.152;2022-07-03T01:43:22;1002.5;;;24.32;40.59
54459;BME280;40368;49.350;8.152;2022-07-03T01:44:21;1002.4;;;24.37;40.23
54459;BME280;40368;49.350;8.152;2022-07-03T01:45:21;1002.5;;;24.39;40.4
54459;BME280;40368;49.350;8.152;2022-07-03T01:46:21;1002.4;;;24.31;40.45
54459;BME280;40368;49.350;8.152;2022-07-03T01:47:22;1002.4;;;24.27;40.65
54459;BME280;40368;49.350;8.152;2022-07-03T01:48:21;1002.4;;;24.26;40.85
54459;BME280;40368;49.350;8.152;2022-07-03T01:49:21;1002.4;;;24.21;40.77
54459;BME280;40368;49.350;8.152;2022-07-03T01:50:21;1002.4;;;24.2;40.73
54459;BME280;40368;49.350;8.152;2022-07-03T01:51:21;1002.4;;;24.23;40.76
54459;BME280;40368;49.350;8.152;2022-07-03T01:52:21;1002.5;;;24.22;40.83
54459;BME280;40368;49.350;8.152;2022-07-03T01:53:23;1002.5;;;24.17;40.94
54459;BME280;40368;49.350;8.152;2022-07-03T01:54:23;1002.4;;;24.19;40.92
54459;BME280;40368;49.350;8.152;2022-07-03T01:55:22;1002.4;;;24.19;40.95
54459;BME280;40368;49.350;8.152;2022-07-03T01:56:21;1002.4;;;24.21;40.94
54459;BME280;40368;49.350;8.152;2022-07-03T01:57:21;1002.4;;;24.2;40.95
54459;BME280;40368;49.350;8.152;2022-07-03T01:58:21;1002.4;;;24.2;40.98
54459;BME280;40368;49.350;8.152;2022-07-03T01:59:21;1002.5;;;24.19;40.85
54459;BME280;40368;49.350;8.152;2022-07-03T02:00:21;1002.4;;;24.24;40.67
54459;BME280;40368;49.350;8.152;2022-07-03T02:01:22;1002.5;;;24.35;40.46
54459;BME280;40368;49.350;8.152;2022-07-03T02:02:22;1002.5;;;24.41;40.42
54459;BME280;40368;49.350;8.152;2022-07-03T02:03:22;1002.5;;;24.39;40.36
54459;BME280;40368;49.350;8.152;2022-07-03T02:04:23;1002.4;;;24.36;40.69
54459;BME280;40368;49.350;8.152;2022-07-03T02:05:22;1002.5;;;24.34;40.48
54459;BME280;40368;49.350;8.152;2022-07-03T02:06:23;1002.5;;;24.36;40.4
54459;BME280;40368;49.350;8.152;2022-07-03T02:07:28;1002.5;;;24.41;40.48
54459;BME280;40368;49.350;8.152;2022-07-03T02:08:25;1002.5;;;24.41;40.31
54459;BME280;40368;49.350;8.152;2022-07-03T02:09:22;1002.5;;;24.41;40.41
54459;BME280;40368;49.350;8.152;2022-07-03T02:10:22;1002.5;;;24.44;40.2
54459;BME280;40368;49.350;8.152;2022-07-03T02:11:21;1002.5;;;24.48;40.09
54459;BME280;40368;49.350;8.152;2022-07-03T02:12:21;1002.5;;;24.48;40.26
54459;BME280;40368;49.350;8.152;2022-07-03T02:13:22;1002.5;;;24.45;39.94
54459;BME280;40368;49.350;8.152;2022-07-03T02:14:22;1002.6;;;24.51;39.96
54459;BME280;40368;49.350;8.152;2022-07-03T02:15:24;1002.5;;;24.52;39.93
54459;BME280;40368;49.350;8.152;2022-07-03T02:16:22;1002.5;;;24.56;39.81
54459;BME280;40368;49.350;8.152;2022-07-03T02:17:22;1002.6;;;24.61;39.93
54459;BME280;40368;49.350;8.152;2022-07-03T02:18:25;1002.5;;;24.6;39.91
54459;BME280;40368;49.350;8.152;2022-07-03T02:19:21;1002.5;;;24.6;39.59
54459;BME280;40368;49.350;8.152;2022-07-03T02:20:21;1002.5;;;24.63;39.79
54459;BME280;40368;49.350;8.152;2022-07-03T02:21:21;1002.5;;;24.63;39.49
54459;BME280;40368;49.350;8.152;2022-07-03T02:22:26;1002.5;;;24.57;39.99
54459;BME280;40368;49.350;8.152;2022-07-03T02:23:21;1002.5;;;24.51;40.14
54459;BME280;40368;49.350;8.152;2022-07-03T02:24:23;1002.5;;;24.43;40.27
54459;BME280;40368;49.350;8.152;2022-07-03T02:25:23;1002.5;;;24.41;40.35
54459;BME280;40368;49.350;8.152;2022-07-03T02:26:21;1002.5;;;24.4;40.36
54459;BME280;40368;49.350;8.152;2022-07-03T02:27:21;1002.5;;;24.43;40.21
54459;BME280;40368;49.350;8.152;2022-07-03T02:28:22;1002.5;;;24.43;40.22
54459;BME280;40368;49.350;8.152;2022-07-03T02:29:26;1002.5;;;24.44;40.36
54459;BME280;40368;49.350;8.152;2022-07-03T02:31:21;1002.5;;;24.43;40.08
54459;BME280;40368;49.350;8.152;2022-07-03T02:32:21;1002.4;;;24.48;40.26
54459;BME280;40368;49.350;8.152;2022-07-03T02:33:21;1002.4;;;24.41;40.31
54459;BME280;40368;49.350;8.152;2022-07-03T02:34:22;1002.4;;;24.41;40.09
54459;BME280;40368;49.350;8.152;2022-07-03T02:35:22;1002.4;;;24.43;40.15
54459;BME280;40368;49.350;8.152;2022-07-03T02:36:21;1002.4;;;24.43;40.3
54459;BME280;40368;49.350;8.152;2022-07-03T02:37:21;1002.4;;;24.41;40.38
54459;BME280;40368;49.350;8.152;2022-07-03T02:38:21;1002.4;;;24.32;40.52
54459;BME280;40368;49.350;8.152;2022-07-03T02:39:23;1002.4;;;24.27;40.68
54459;BME280;40368;49.350;8.152;2022-07-03T02:40:22;1002.4;;;24.22;40.69
54459;BME280;40368;49.350;8.152;2022-07-03T02:41:21;1002.4;;;24.21;40.7
54459;BME280;40368;49.350;8.152;2022-07-03T02:42:25;1002.4;;;24.13;41
54459;BME280;40368;49.350;8.152;2022-07-03T02:43:23;1002.4;;;24.13;40.95
54459;BME280;40368;49.350;8.152;2022-07-03T02:44:23;1002.5;;;24.19;40.57
54459;BME280;40368;49.350;8.152;2022-07-03T02:45:21;1002.4;;;24.23;40.92
54459;BME280;40368;49.350;8.152;2022-07-03T02:46:23;1002.4;;;24.19;40.95
54459;BME280;40368;49.350;8.152;2022-07-03T02:47:23;1002.5;;;24.15;41
54459;BME280;40368;49.350;8.152;2022-07-03T02:48:24;1002.5;;;24.08;41.15
54459;BME280;40368;49.350;8.152;2022-07-03T02:49:26;1002.5;;;23.99;41.21
54459;BME280;40368;49.350;8.152;2022-07-03T02:50:21;1002.5;;;23.92;41.38
54459;BME280;40368;49.350;8.152;2022-07-03T02:51:21;1002.5;;;23.88;41.57
54459;BME280;40368;49.350;8.152;2022-07-03T02:52:23;1002.5;;;23.79;41.73
54459;BME280;40368;49.350;8.152;2022-07-03T02:53:22;1002.5;;;23.75;41.7
54459;BME280;40368;49.350;8.152;2022-07-03T02:54:21;1002.5;;;23.76;41.92
54459;BME280;40368;49.350;8.152;2022-07-03T02:55:26;1002.5;;;23.75;41.97
54459;BME280;40368;49.350;8.152;2022-07-03T02:56:23;1002.5;;;23.71;41.91
54459;BME280;40368;49.350;8.152;2022-07-03T02:57:21;1002.5;;;23.63;42.17
54459;BME280;40368;49.350;8.152;2022-07-03T02:58:57;1002.5;;;23.63;42.09
54459;BME280;40368;49.350;8.152;2022-07-03T02:59:22;1002.5;;;23.64;42.11
54459;BME280;40368;49.350;8.152;2022-07-03T03:00:21;1002.5;;;23.64;42.17
54459;BME280;40368;49.350;8.152;2022-07-03T03:01:24;1002.6;;;23.61;42.2
54459;BME280;40368;49.350;8.152;2022-07-03T03:02:40;1002.6;;;23.6;42.29
54459;BME280;40368;49.350;8.152;2022-07-03T03:03:21;1002.6;;;23.58;42.44
54459;BME280;40368;49.350;8.152;2022-07-03T03:04:22;1002.6;;;23.53;42.26
54459;BME280;40368;49.350;8.152;2022-07-03T03:05:22;1002.6;;;23.54;42.1
54459;BME280;40368;49.350;8.152;2022-07-03T03:06:21;1002.6;;;23.62;42.02
54459;BME280;40368;49.350;8.152;2022-07-03T03:07:22;1002.6;;;23.6;42.19
54459;BME280;40368;49.350;8.152;2022-07-03T03:08:22;1002.6;;;23.62;42.2
54459;BME280;40368;49.350;8.152;2022-07-03T03:10:21;1002.6;;;23.65;42.18
54459;BME280;40368;49.350;8.152;2022-07-03T03:11:22;1002.6;;;23.66;42.23
54459;BME280;40368;49.350;8.152;2022-07-03T03:12:21;1002.6;;;23.65;42.14
54459;BME280;40368;49.350;8.152;2022-07-03T03:13:21;1002.6;;;23.58;42.22
54459;BME280;40368;49.350;8.152;2022-07-03T03:14:21;1002.6;;;23.58;42.07
54459;BME280;40368;49.350;8.152;2022-07-03T03:15:21;1002.6;;;23.54;42.33
54459;BME280;40368;49.350;8.152;2022-07-03T03:16:21;1002.6;;;23.49;42.27
54459;BME280;40368;49.350;8.152;2022-07-03T03:17:23;1002.6;;;23.54;41.94
54459;BME280;40368;49.350;8.152;2022-07-03T03:18:21;1002.7;;;23.56;42.29
54459;BME280;40368;49.350;8.152;2022-07-03T03:19:21;1002.7;;;23.56;42.21
54459;BME280;40368;49.350;8.152;2022-07-03T03:20:22;1002.6;;;23.64;42.09
54459;BME280;40368;49.350;8.152;2022-07-03T03:21:21;1002.7;;;23.62;42.1
54459;BME280;40368;49.350;8.152;2022-07-03T03:22:25;1002.7;;;23.63;42.01
54459;BME280;40368;49.350;8.152;2022-07-03T03:23:21;1002.7;;;23.64;42.08
54459;BME280;40368;49.350;8.152;2022-07-03T03:24:21;1002.7;;;23.61;41.96
54459;BME280;40368;49.350;8.152;2022-07-03T03:25:21;1002.7;;;23.56;42.19
54459;BME280;40368;49.350;8.152;2022-07-03T03:26:22;1002.8;;;23.47;42.43
54459;BME280;40368;49.350;8.152;2022-07-03T03:27:21;1002.7;;;23.47;42.5
54459;BME280;40368;49.350;8.152;2022-07-03T03:28:21;1002.7;;;23.54;42.25
54459;BME280;40368;49.350;8.152;2022-07-03T03:29:21;1002.7;;;23.57;42.17
54459;BME280;40368;49.350;8.152;2022-07-03T03:30:21;1002.8;;;23.51;42.33
54459;BME280;40368;49.350;8.152;2022-07-03T03:31:21;1002.7;;;23.48;42.37
54459;BME280;40368;49.350;8.152;2022-07-03T03:32:21;1002.7;;;23.53;42.19
54459;BME280;40368;49.350;8.152;2022-07-03T03:33:21;1002.7;;;23.57;42.43
54459;BME280;40368;49.350;8.152;2022-07-03T03:34:21;1002.8;;;23.6;42.25
54459;BME280;40368;49.350;8.152;2022-07-03T03:35:21;1002.8;;;23.59;42.08
54459;BME280;40368;49.350;8.152;2022-07-03T03:36:21;1002.8;;;23.61;42.19
54459;BME280;40368;49.350;8.152;2022-07-03T03:37:21;1002.8;;;23.61;42.14
54459;BME280;40368;49.350;8.152;2022-07-03T03:38:21;1002.8;;;23.55;42.23
54459;BME280;40368;49.350;8.152;2022-07-03T03:39:21;1002.8;;;23.51;42.32
54459;BME280;40368;49.350;8.152;2022-07-03T03:40:21;1002.8;;;23.46;42.48
54459;BME280;40368;49.350;8.152;2022-07-03T03:41:21;1002.8;;;23.49;42.26
54459;BME280;40368;49.350;8.152;2022-07-03T03:42:21;1002.8;;;23.41;42.6
54459;BME280;40368;49.350;8.152;2022-07-03T03:43:21;1002.8;;;23.33;42.69
54459;BME280;40368;49.350;8.152;2022-07-03T03:44:21;1002.9;;;23.25;43.04
54459;BME280;40368;49.350;8.152;2022-07-03T03:45:22;1002.8;;;23.22;42.82
54459;BME280;40368;49.350;8.152;2022-07-03T03:46:21;1002.9;;;23.15;43.15
54459;BME280;40368;49.350;8.152;2022-07-03T03:47:21;1002.8;;;23.15;43.14
54459;BME280;40368;49.350;8.152;2022-07-03T03:48:21;1002.8;;;23.18;42.87
54459;BME280;40368;49.350;8.152;2022-07-03T03:49:21;1002.8;;;23.23;42.96
54459;BME280;40368;49.350;8.152;2022-07-03T03:50:21;1002.9;;;23.27;43.08
54459;BME280;40368;49.350;8.152;2022-07-03T03:51:21;1002.9;;;23.26;43
54459;BME280;40368;49.350;8.152;2022-07-03T03:52:21;1002.9;;;23.25;42.85
54459;BME280;40368;49.350;8.152;2022-07-03T03:53:21;1002.9;;;23.29;42.71
54459;BME280;40368;49.350;8.152;2022-07-03T03:54:21;1002.9;;;23.33;42.5
54459;BME280;40368;49.350;8.152;2022-07-03T03:55:21;1002.9;;;23.31;42.76
54459;BME280;40368;49.350;8.152;2022-07-03T03:56:21;1002.9;;;23.34;42.76
54459;BME280;40368;49.350;8.152;2022-07-03T03:57:23;1003;;;23.39;42.19
54459;BME280;40368;49.350;8.152;2022-07-03T03:58:21;1002.9;;;23.39;42.55
54459;BME280;40368;49.350;8.152;2022-07-03T03:59:21;1002.9;;;23.37;42.49
54459;BME280;40368;49.350;8.152;2022-07-03T04:00:21;1003;;;23.38;42.42
54459;BME280;40368;49.350;8.152;2022-07-03T04:01:21;1003;;;23.33;42.69
54459;BME280;40368;49.350;8.152;2022-07-03T04:02:21;1003;;;23.31;42.73
54459;BME280;40368;49.350;8.152;2022-07-03T04:03:21;1003;;;23.16;42.91
54459;BME280;40368;49.350;8.152;2022-07-03T04:04:21;1002.9;;;23.14;43.08
54459;BME280;40368;49.350;8.152;2022-07-03T04:05:21;1002.9;;;23.17;42.94
54459;BME280;40368;49.350;8.152;2022-07-03T04:06:21;1002.9;;;23.17;43.04
54459;BME280;40368;49.350;8.152;2022-07-03T04:07:23;1003;;;23.2;42.99
54459;BME280;40368;49.350;8.152;2022-07-03T04:08:21;1002.9;;;23.21;42.62
54459;BME280;40368;49.350;8.152;2022-07-03T04:09:21;1003;;;23.18;43.15
54459;BME280;40368;49.350;8.152;2022-07-03T04:10:21;1002.9;;;23.1;43.17
54459;BME280;40368;49.350;8.152;2022-07-03T04:11:21;1002.9;;;23.07;43.3
54459;BME280;40368;49.350;8.152;2022-07-03T04:12:21;1002.9;;;23.02;43.44
54459;BME280;40368;49.350;8.152;2022-07-03T04:13:21;1002.9;;;23;43.27
54459;BME280;40368;49.350;8.152;2022-07-03T04:14:21;1002.9;;;23.11;42.82
54459;BME280;40368;49.350;8.152;2022-07-03T04:15:21;1002.9;;;23.18;42.96
54459;BME280;40368;49.350;8.152;2022-07-03T04:16:21;1002.9;;;23.25;42.44
54459;BME280;40368;49.350;8.152;2022-07-03T04:17:21;1002.9;;;23.24;42.74
54459;BME280;40368;49.350;8.152;2022-07-03T04:18:21;1002.9;;;23.28;42.57
54459;BME280;40368;49.350;8.152;2022-07-03T04:19:21;1002.9;;;23.33;42.56
54459;BME280;40368;49.350;8.152;2022-07-03T04:20:21;1002.9;;;23.35;42.54
54459;BME280;40368;49.350;8.152;2022-07-03T04:21:21;1002.9;;;23.37;42.31
54459;BME280;40368;49.350;8.152;2022-07-03T04:22:21;1002.9;;;23.31;42.51
54459;BME280;40368;49.350;8.152;2022-07-03T04:23:21;1002.9;;;23.31;42.75
54459;BME280;40368;49.350;8.152;2022-07-03T04:24:21;1002.9;;;23.28;42.74
54459;BME280;40368;49.350;8.152;2022-07-03T04:25:21;1002.9;;;23.31;42.69
54459;BME280;40368;49.350;8.152;2022-07-03T04:26:21;1002.9;;;23.29;42.67
54459;BME280;40368;49.350;8.152;2022-07-03T04:27:22;1002.9;;;23.21;42.91
54459;BME280;40368;49.350;8.152;2022-07-03T04:28:21;1002.9;;;23.12;43.09
54459;BME280;40368;49.350;8.152;2022-07-03T04:29:21;1002.9;;;23.03;43.24
54459;BME280;40368;49.350;8.152;2022-07-03T04:30:21;1002.9;;;23.02;43.33
54459;BME280;40368;49.350;8.152;2022-07-03T04:31:21;1002.9;;;23.02;43.34
54459;BME280;40368;49.350;8.152;2022-07-03T04:32:21;1002.9;;;23.01;43.65
54459;BME280;40368;49.350;8.152;2022-07-03T04:33:21;1002.9;;;22.98;43.09
54459;BME280;40368;49.350;8.152;2022-07-03T04:34:21;1002.9;;;22.99;43.34
54459;BME280;40368;49.350;8.152;2022-07-03T04:35:21;1002.9;;;23.05;43.28
54459;BME280;40368;49.350;8.152;2022-07-03T04:36:21;1002.9;;;23.09;43.26
54459;BME280;40368;49.350;8.152;2022-07-03T04:37:21;1002.9;;;23.14;43.12
54459;BME280;40368;49.350;8.152;2022-07-03T04:38:21;1002.9;;;23.2;42.91
54459;BME280;40368;49.350;8.152;2022-07-03T04:39:21;1002.9;;;23.26;42.31
54459;BME280;40368;49.350;8.152;2022-07-03T04:40:22;1003;;;23.34;42.73
54459;BME280;40368;49.350;8.152;2022-07-03T04:41:21;1002.9;;;23.44;42.21
54459;BME280;40368;49.350;8.152;2022-07-03T04:42:21;1003;;;23.47;42.34
54459;BME280;40368;49.350;8.152;2022-07-03T04:43:21;1003;;;23.43;42.47
54459;BME280;40368;49.350;8.152;2022-07-03T04:44:21;1003;;;23.35;42.47
54459;BME280;40368;49.350;8.152;2022-07-03T04:45:21;1003;;;23.31;42.79
54459;BME280;40368;49.350;8.152;2022-07-03T04:46:21;1003;;;23.27;42.99
54459;BME280;40368;49.350;8.152;2022-07-03T04:47:21;1003;;;23.23;43.06
54459;BME280;40368;49.350;8.152;2022-07-03T04:48:21;1003;;;23.25;42.99
54459;BME280;40368;49.350;8.152;2022-07-03T04:49:21;1003.1;;;23.25;42.72
54459;BME280;40368;49.350;8.152;2022-07-03T04:50:21;1003.1;;;23.28;42.92
54459;BME280;40368;49.350;8.152;2022-07-03T04:51:21;1003.1;;;23.3;42.87
54459;BME280;40368;49.350;8.152;2022-07-03T04:52:21;1003.1;;;23.35;42.33
54459;BME280;40368;49.350;8.152;2022-07-03T04:53:21;1003.1;;;23.48;42.28
54459;BME280;40368;49.350;8.152;2022-07-03T04:54:21;1003.1;;;23.6;41.73
54459;BME280;40368;49.350;8.152;2022-07-03T04:55:21;1003;;;23.7;41.52
54459;BME280;40368;49.350;8.152;2022-07-03T04:56:21;1003;;;23.75;41.75
54459;BME280;40368;49.350;8.152;2022-07-03T04:57:21;1003;;;23.79;41.45
54459;BME280;40368;49.350;8.152;2022-07-03T04:58:21;1003;;;23.87;41.38
54459;BME280;40368;49.350;8.152;2022-07-03T04:59:21;1003.1;;;23.92;40.93
54459;BME280;40368;49.350;8.152;2022-07-03T05:00:21;1003.1;;;24;41.26
54459;BME280;40368;49.350;8.152;2022-07-03T05:01:21;1003.1;;;24.05;40.95
54459;BME280;40368;49.350;8.152;2022-07-03T05:02:21;1003.1;;;24.09;41.12
54459;BME280;40368;49.350;8.152;2022-07-03T05:03:21;1003.1;;;24.14;40.32
54459;BME280;40368;49.350;8.152;2022-07-03T05:04:21;1003.1;;;24.23;40.3
54459;BME280;40368;49.350;8.152;2022-07-03T05:05:21;1003.1;;;24.31;40.27
54459;BME280;40368;49.350;8.152;2022-07-03T05:06:21;1003;;;24.37;40.19
54459;BME280;40368;49.350;8.152;2022-07-03T05:07:21;1003.1;;;24.45;39.75
54459;BME280;40368;49.350;8.152;2022-07-03T05:08:21;1003;;;24.52;39.86
54459;BME280;40368;49.350;8.152;2022-07-03T05:09:21;1003;;;24.56;40.03
54459;BME280;40368;49.350;8.152;2022-07-03T05:10:21;1003;;;24.61;39.91
54459;BME280;40368;49.350;8.152;2022-07-03T05:11:21;1003;;;24.63;40.24
54459;BME280;40368;49.350;8.152;2022-07-03T05:12:21;1003.1;;;24.67;39.65
54459;BME280;40368;49.350;8.152;2022-07-03T05:13:21;1003.1;;;24.71;40.19
54459;BME280;40368;49.350;8.152;2022-07-03T05:14:21;1003.1;;;24.7;40.27
54459;BME280;40368;49.350;8.152;2022-07-03T05:15:21;1003.1;;;24.69;40.43
54459;BME280;40368;49.350;8.152;2022-07-03T05:16:21;1003.1;;;24.68;40.42
54459;BME280;40368;49.350;8.152;2022-07-03T05:17:21;1003.1;;;24.7;39.85
54459;BME280;40368;49.350;8.152;2022-07-03T05:18:21;1003.1;;;24.73;40.23
54459;BME280;40368;49.350;8.152;2022-07-03T05:19:21;1003.1;;;24.74;39.82
54459;BME280;40368;49.350;8.152;2022-07-03T05:20:21;1003.1;;;24.75;39.62
54459;BME280;40368;49.350;8.152;2022-07-03T05:21:21;1003.1;;;24.76;40.33
54459;BME280;40368;49.350;8.152;2022-07-03T05:22:21;1003.1;;;24.75;39.63
54459;BME280;40368;49.350;8.152;2022-07-03T05:23:21;1003.1;;;24.74;40.22
54459;BME280;40368;49.350;8.152;2022-07-03T05:24:21;1003.1;;;24.71;39.98
54459;BME280;40368;49.350;8.152;2022-07-03T05:25:21;1003.1;;;24.64;39.63
54459;BME280;40368;49.350;8.152;2022-07-03T05:26:21;1003.2;;;24.63;39.77
54459;BME280;40368;49.350;8.152;2022-07-03T05:27:21;1003.1;;;24.56;40.47
54459;BME280;40368;49.350;8.152;2022-07-03T05:28:21;1003.1;;;24.47;40.83
54459;BME280;40368;49.350;8.152;2022-07-03T05:29:21;1003.1;;;24.42;40.79
54459;BME280;40368;49.350;8.152;2022-07-03T05:30:21;1003.2;;;24.38;40.46
54459;BME280;40368;49.350;8.152;2022-07-03T05:31:21;1003.2;;;24.3;40.88
54459;BME280;40368;49.350;8.152;2022-07-03T05:32:21;1003.1;;;24.22;41.12
54459;BME280;40368;49.350;8.152;2022-07-03T05:33:21;1003.2;;;24.19;41.25